sensor_id;sensor_type;location;lat;lon;timestamp;P1;durP1;ratioP1;P2;durP2;ratioP2
4911;SDS011;2471;47.056;8.350;2023-04-24T00:02:18;2.80;;;2.57;;
4911;SDS011;2471;47.056;8.350;2023-04-24T00:04:44;4.20;;;2.40;;
4911;SDS011;2471;47.056;8.350;2023-04-24T00:07:11;1.97;;;1.87;;
4911;SDS011;2471;47.056;8.350;2023-04-24T00:09:38;2.40;;;1.93;;
4911;SDS011;2471;47.056;8.350;2023-04-24T00:12:04;5.13;;;2.77;;
4911;SDS011;2471;47.056;8.350;2023-04-24T00:14:30;2.33;;;2.13;;
4911;SDS011;2471;47.056;8.350;2023-04-24T00:16:56;4.30;;;2.10;;
4911;SDS011;2471;47.056;8.350;2023-04-24T00:19:22;1.93;;;1.70;;
4911;SDS011;2471;47.056;8.350;2023-04-24T00:21:48;2.67;;;2.10;;
4911;SDS011;2471;47.056;8.350;2023-04-24T00:24:15;2.30;;;2.10;;
4911;SDS011;2471;47.056;8.350;2023-04-24T00:26:41;2.47;;;2.27;;
4911;SDS011;2471;47.056;8.350;2023-04-24T00:29:07;5.00;;;2.10;;
4911;SDS011;2471;47.056;8.350;2023-04-24T00:31:33;4.10;;;2.50;;
4911;SDS011;2471;47.056;8.350;2023-04-24T00:33:59;8.53;;;4.23;;
4911;SDS011;2471;47.056;8.350;2023-04-24T00:36:25;3.40;;;2.53;;
4911;SDS011;2471;47.056;8.350;2023-04-24T00:38:52;2.03;;;1.90;;
4911;SDS011;2471;47.056;8.350;2023-04-24T00:41:17;1.70;;;1.60;;
4911;SDS011;2471;47.056;8.350;2023-04-24T00:43:44;3.10;;;2.67;;
4911;SDS011;2471;47.056;8.350;2023-04-24T00:46:10;2.40;;;2.00;;
4911;SDS011;2471;47.056;8.350;2023-04-24T00:48:37;1.30;;;1.20;;
4911;SDS011;2471;47.056;8.350;2023-04-24T00:51:04;2.03;;;1.40;;
4911;SDS011;2471;47.056;8.350;2023-04-24T00:53:30;1.23;;;1.07;;
4911;SDS011;2471;47.056;8.350;2023-04-24T00:55:56;1.47;;;1.27;;
4911;SDS011;2471;47.056;8.350;2023-04-24T00:58:23;1.20;;;1.10;;
4911;SDS011;2471;47.056;8.350;2023-04-24T01:00:49;1.30;;;1.03;;
4911;SDS011;2471;47.056;8.350;2023-04-24T01:03:18;2.80;;;0.93;;
4911;SDS011;2471;47.056;8.350;2023-04-24T01:05:44;1.10;;;1.10;;
4911;SDS011;2471;47.056;8.350;2023-04-24T01:08:13;1.07;;;0.97;;
4911;SDS011;2471;47.056;8.350;2023-04-24T01:10:39;1.00;;;1.00;;
4911;SDS011;2471;47.056;8.350;2023-04-24T01:13:07;1.00;;;0.87;;
4911;SDS011;2471;47.056;8.350;2023-04-24T01:15:34;0.90;;;0.90;;
4911;SDS011;2471;47.056;8.350;2023-04-24T01:18:02;0.97;;;0.87;;
4911;SDS011;2471;47.056;8.350;2023-04-24T01:20:28;1.00;;;0.90;;
4911;SDS011;2471;47.056;8.350;2023-04-24T01:22:55;2.73;;;0.80;;
4911;SDS011;2471;47.056;8.350;2023-04-24T01:25:24;0.90;;;0.80;;
4911;SDS011;2471;47.056;8.350;2023-04-24T01:27:51;3.10;;;1.20;;
4911;SDS011;2471;47.056;8.350;2023-04-24T01:30:17;0.70;;;0.60;;
4911;SDS011;2471;47.056;8.350;2023-04-24T01:32:43;0.83;;;0.67;;
4911;SDS011;2471;47.056;8.350;2023-04-24T01:35:10;0.80;;;0.60;;
4911;SDS011;2471;47.056;8.350;2023-04-24T01:37:36;1.33;;;0.90;;
4911;SDS011;2471;47.056;8.350;2023-04-24T01:40:03;0.70;;;0.60;;
4911;SDS011;2471;47.056;8.350;2023-04-24T01:42:29;2.43;;;1.40;;
4911;SDS011;2471;47.056;8.350;2023-04-24T01:44:56;5.47;;;0.73;;
4911;SDS011;2471;47.056;8.350;2023-04-24T01:47:22;0.70;;;0.60;;
4911;SDS011;2471;47.056;8.350;2023-04-24T01:49:49;2.40;;;1.20;;
4911;SDS011;2471;47.056;8.350;2023-04-24T01:52:16;1.27;;;0.83;;
4911;SDS011;2471;47.056;8.350;2023-04-24T01:54:43;2.90;;;1.07;;
4911;SDS011;2471;47.056;8.350;2023-04-24T01:57:09;1.10;;;0.60;;
4911;SDS011;2471;47.056;8.350;2023-04-24T01:59:35;0.70;;;0.50;;
4911;SDS011;2471;47.056;8.350;2023-04-24T02:02:02;0.80;;;0.70;;
4911;SDS011;2471;47.056;8.350;2023-04-24T02:04:28;2.70;;;0.70;;
4911;SDS011;2471;47.056;8.350;2023-04-24T02:06:54;3.33;;;0.70;;
4911;SDS011;2471;47.056;8.350;2023-04-24T02:09:20;0.73;;;0.73;;
4911;SDS011;2471;47.056;8.350;2023-04-24T02:11:46;0.80;;;0.60;;
4911;SDS011;2471;47.056;8.350;2023-04-24T02:14:12;0.90;;;0.77;;
4911;SDS011;2471;47.056;8.350;2023-04-24T02:16:38;1.10;;;1.00;;
4911;SDS011;2471;47.056;8.350;2023-04-24T02:19:04;0.80;;;0.77;;
4911;SDS011;2471;47.056;8.350;2023-04-24T02:21:30;1.10;;;1.00;;
4911;SDS011;2471;47.056;8.350;2023-04-24T02:23:56;1.30;;;1.13;;
4911;SDS011;2471;47.056;8.350;2023-04-24T02:26:22;0.70;;;0.70;;
4911;SDS011;2471;47.056;8.350;2023-04-24T02:28:48;1.63;;;1.20;;
4911;SDS011;2471;47.056;8.350;2023-04-24T02:31:14;1.60;;;0.90;;
4911;SDS011;2471;47.056;8.350;2023-04-24T02:33:40;0.87;;;0.80;;
4911;SDS011;2471;47.056;8.350;2023-04-24T02:36:06;2.97;;;1.10;;
4911;SDS011;2471;47.056;8.350;2023-04-24T02:38:32;3.07;;;1.30;;
4911;SDS011;2471;47.056;8.350;2023-04-24T02:40:58;1.30;;;1.20;;
4911;SDS011;2471;47.056;8.350;2023-04-24T02:43:25;2.47;;;1.20;;
4911;SDS011;2471;47.056;8.350;2023-04-24T02:45:51;1.20;;;1.00;;
4911;SDS011;2471;47.056;8.350;2023-04-24T02:48:17;0.90;;;0.90;;
4911;SDS011;2471;47.056;8.350;2023-04-24T02:50:45;1.03;;;0.90;;
4911;SDS011;2471;47.056;8.350;2023-04-24T02:53:11;1.30;;;1.00;;
4911;SDS011;2471;47.056;8.350;2023-04-24T02:55:37;2.70;;;1.30;;
4911;SDS011;2471;47.056;8.350;2023-04-24T02:58:03;1.10;;;0.70;;
4911;SDS011;2471;47.056;8.350;2023-04-24T03:00:30;0.80;;;0.70;;
4911;SDS011;2471;47.056;8.350;2023-04-24T03:02:56;6.30;;;0.80;;
4911;SDS011;2471;47.056;8.350;2023-04-24T03:05:22;1.43;;;0.70;;
4911;SDS011;2471;47.056;8.350;2023-04-24T03:07:48;0.80;;;0.70;;
4911;SDS011;2471;47.056;8.350;2023-04-24T03:10:14;0.80;;;0.70;;
4911;SDS011;2471;47.056;8.350;2023-04-24T03:12:40;0.70;;;0.70;;
4911;SDS011;2471;47.056;8.350;2023-04-24T03:15:06;1.27;;;1.00;;
4911;SDS011;2471;47.056;8.350;2023-04-24T03:17:32;1.00;;;0.80;;
4911;SDS011;2471;47.056;8.350;2023-04-24T03:19:58;1.20;;;1.10;;
4911;SDS011;2471;47.056;8.350;2023-04-24T03:22:24;2.70;;;1.20;;
4911;SDS011;2471;47.056;8.350;2023-04-24T03:24:50;5.33;;;1.17;;
4911;SDS011;2471;47.056;8.350;2023-04-24T03:27:16;1.70;;;1.03;;
4911;SDS011;2471;47.056;8.350;2023-04-24T03:29:42;0.93;;;0.90;;
4911;SDS011;2471;47.056;8.350;2023-04-24T03:32:08;1.00;;;1.00;;
4911;SDS011;2471;47.056;8.350;2023-04-24T03:34:34;1.40;;;1.10;;
4911;SDS011;2471;47.056;8.350;2023-04-24T03:37:00;2.63;;;0.97;;
4911;SDS011;2471;47.056;8.350;2023-04-24T03:39:26;2.80;;;1.10;;
4911;SDS011;2471;47.056;8.350;2023-04-24T03:41:52;2.40;;;1.30;;
4911;SDS011;2471;47.056;8.350;2023-04-24T03:44:18;1.53;;;1.00;;
4911;SDS011;2471;47.056;8.350;2023-04-24T03:46:44;1.10;;;1.00;;
4911;SDS011;2471;47.056;8.350;2023-04-24T03:49:10;1.10;;;1.00;;
4911;SDS011;2471;47.056;8.350;2023-04-24T03:51:36;1.60;;;1.50;;
4911;SDS011;2471;47.056;8.350;2023-04-24T03:54:02;1.00;;;1.00;;
4911;SDS011;2471;47.056;8.350;2023-04-24T03:56:28;1.20;;;1.10;;
4911;SDS011;2471;47.056;8.350;2023-04-24T03:58:54;0.80;;;0.80;;
4911;SDS011;2471;47.056;8.350;2023-04-24T04:01:20;1.47;;;0.77;;
4911;SDS011;2471;47.056;8.350;2023-04-24T04:03:46;1.10;;;1.00;;
4911;SDS011;2471;47.056;8.350;2023-04-24T04:06:12;3.07;;;1.03;;
4911;SDS011;2471;47.056;8.350;2023-04-24T04:08:38;0.90;;;0.80;;
4911;SDS011;2471;47.056;8.350;2023-04-24T04:11:04;4.73;;;0.83;;
4911;SDS011;2471;47.056;8.350;2023-04-24T04:13:30;2.90;;;1.00;;
4911;SDS011;2471;47.056;8.350;2023-04-24T04:15:56;6.30;;;0.70;;
4911;SDS011;2471;47.056;8.350;2023-04-24T04:18:22;0.83;;;0.80;;
4911;SDS011;2471;47.056;8.350;2023-04-24T04:20:48;3.80;;;0.87;;
4911;SDS011;2471;47.056;8.350;2023-04-24T04:23:14;3.57;;;0.93;;
4911;SDS011;2471;47.056;8.350;2023-04-24T04:25:40;0.70;;;0.70;;
4911;SDS011;2471;47.056;8.350;2023-04-24T04:28:06;0.90;;;0.80;;
4911;SDS011;2471;47.056;8.350;2023-04-24T04:30:32;1.20;;;0.97;;
4911;SDS011;2471;47.056;8.350;2023-04-24T04:32:58;1.20;;;1.10;;
4911;SDS011;2471;47.056;8.350;2023-04-24T04:35:25;0.80;;;0.80;;
4911;SDS011;2471;47.056;8.350;2023-04-24T04:37:51;0.90;;;0.77;;
4911;SDS011;2471;47.056;8.350;2023-04-24T04:40:17;4.10;;;1.20;;
4911;SDS011;2471;47.056;8.350;2023-04-24T04:42:43;2.80;;;0.70;;
4911;SDS011;2471;47.056;8.350;2023-04-24T04:45:11;2.90;;;1.00;;
4911;SDS011;2471;47.056;8.350;2023-04-24T04:47:37;2.30;;;1.10;;
4911;SDS011;2471;47.056;8.350;2023-04-24T04:50:04;1.00;;;1.00;;
4911;SDS011;2471;47.056;8.350;2023-04-24T04:52:31;2.13;;;0.90;;
4911;SDS011;2471;47.056;8.350;2023-04-24T04:54:57;1.00;;;0.90;;
4911;SDS011;2471;47.056;8.350;2023-04-24T04:57:22;1.30;;;0.80;;
4911;SDS011;2471;47.056;8.350;2023-04-24T04:59:48;1.13;;;1.03;;
4911;SDS011;2471;47.056;8.350;2023-04-24T05:02:17;1.30;;;1.20;;
4911;SDS011;2471;47.056;8.350;2023-04-24T05:04:43;0.80;;;0.70;;
4911;SDS011;2471;47.056;8.350;2023-04-24T05:07:09;1.47;;;1.00;;
4911;SDS011;2471;47.056;8.350;2023-04-24T05:09:35;1.20;;;0.83;;
4911;SDS011;2471;47.056;8.350;2023-04-24T05:12:02;1.00;;;0.80;;
4911;SDS011;2471;47.056;8.350;2023-04-24T05:14:28;1.00;;;0.80;;
4911;SDS011;2471;47.056;8.350;2023-04-24T05:16:54;1.67;;;0.90;;
4911;SDS011;2471;47.056;8.350;2023-04-24T05:19:20;0.87;;;0.70;;
4911;SDS011;2471;47.056;8.350;2023-04-24T05:21:46;0.70;;;0.70;;
4911;SDS011;2471;47.056;8.350;2023-04-24T05:24:12;0.70;;;0.70;;
4911;SDS011;2471;47.056;8.350;2023-04-24T05:26:38;1.00;;;0.90;;
4911;SDS011;2471;47.056;8.350;2023-04-24T05:29:06;5.90;;;1.20;;
4911;SDS011;2471;47.056;8.350;2023-04-24T05:31:32;1.13;;;1.07;;
4911;SDS011;2471;47.056;8.350;2023-04-24T05:34:01;2.50;;;1.47;;
4911;SDS011;2471;47.056;8.350;2023-04-24T05:36:27;1.33;;;0.90;;
4911;SDS011;2471;47.056;8.350;2023-04-24T05:38:53;2.93;;;0.83;;
4911;SDS011;2471;47.056;8.350;2023-04-24T05:41:19;1.00;;;0.87;;
4911;SDS011;2471;47.056;8.350;2023-04-24T05:43:46;4.83;;;1.00;;
4911;SDS011;2471;47.056;8.350;2023-04-24T05:46:12;0.90;;;0.83;;
4911;SDS011;2471;47.056;8.350;2023-04-24T05:48:41;4.70;;;0.90;;
4911;SDS011;2471;47.056;8.350;2023-04-24T05:51:08;0.80;;;0.80;;
4911;SDS011;2471;47.056;8.350;2023-04-24T05:53:35;0.70;;;0.70;;
4911;SDS011;2471;47.056;8.350;2023-04-24T05:56:04;1.03;;;0.90;;
4911;SDS011;2471;47.056;8.350;2023-04-24T05:58:30;1.00;;;0.90;;
4911;SDS011;2471;47.056;8.350;2023-04-24T06:00:56;0.80;;;0.73;;
4911;SDS011;2471;47.056;8.350;2023-04-24T06:03:23;3.03;;;0.83;;
4911;SDS011;2471;47.056;8.350;2023-04-24T06:05:49;1.03;;;0.80;;
4911;SDS011;2471;47.056;8.350;2023-04-24T06:08:16;1.30;;;0.90;;
4911;SDS011;2471;47.056;8.350;2023-04-24T06:10:42;0.93;;;0.83;;
4911;SDS011;2471;47.056;8.350;2023-04-24T06:13:08;1.00;;;1.00;;
4911;SDS011;2471;47.056;8.350;2023-04-24T06:15:34;4.70;;;1.00;;
4911;SDS011;2471;47.056;8.350;2023-04-24T06:18:00;3.37;;;1.20;;
4911;SDS011;2471;47.056;8.350;2023-04-24T06:20:26;1.87;;;1.10;;
4911;SDS011;2471;47.056;8.350;2023-04-24T06:22:52;1.20;;;1.10;;
4911;SDS011;2471;47.056;8.350;2023-04-24T06:25:18;1.40;;;1.03;;
4911;SDS011;2471;47.056;8.350;2023-04-24T06:27:44;1.30;;;1.20;;
4911;SDS011;2471;47.056;8.350;2023-04-24T06:30:11;1.30;;;1.07;;
4911;SDS011;2471;47.056;8.350;2023-04-24T06:32:37;1.30;;;1.20;;
4911;SDS011;2471;47.056;8.350;2023-04-24T06:35:03;1.33;;;1.20;;
4911;SDS011;2471;47.056;8.350;2023-04-24T06:37:29;1.20;;;1.10;;
4911;SDS011;2471;47.056;8.350;2023-04-24T06:39:57;1.20;;;1.10;;
4911;SDS011;2471;47.056;8.350;2023-04-24T06:42:23;1.67;;;1.10;;
4911;SDS011;2471;47.056;8.350;2023-04-24T06:44:49;1.40;;;1.30;;
4911;SDS011;2471;47.056;8.350;2023-04-24T06:47:15;1.20;;;1.00;;
4911;SDS011;2471;47.056;8.350;2023-04-24T06:49:41;1.60;;;1.50;;
4911;SDS011;2471;47.056;8.350;2023-04-24T06:52:07;1.90;;;1.33;;
4911;SDS011;2471;47.056;8.350;2023-04-24T06:54:34;2.80;;;1.60;;
4911;SDS011;2471;47.056;8.350;2023-04-24T06:57:00;1.93;;;1.20;;
4911;SDS011;2471;47.056;8.350;2023-04-24T06:59:27;4.97;;;1.20;;
4911;SDS011;2471;47.056;8.350;2023-04-24T07:01:53;1.20;;;1.10;;
4911;SDS011;2471;47.056;8.350;2023-04-24T07:04:21;2.30;;;1.13;;
4911;SDS011;2471;47.056;8.350;2023-04-24T07:06:49;4.30;;;1.40;;
4911;SDS011;2471;47.056;8.350;2023-04-24T07:09:16;5.70;;;1.30;;
4911;SDS011;2471;47.056;8.350;2023-04-24T07:11:43;1.30;;;1.13;;
4911;SDS011;2471;47.056;8.350;2023-04-24T07:14:09;4.03;;;1.30;;
4911;SDS011;2471;47.056;8.350;2023-04-24T07:16:38;11.13;;;1.40;;
4911;SDS011;2471;47.056;8.350;2023-04-24T07:19:06;3.10;;;1.67;;
4911;SDS011;2471;47.056;8.350;2023-04-24T07:21:32;1.50;;;1.40;;
4911;SDS011;2471;47.056;8.350;2023-04-24T07:23:58;1.80;;;1.60;;
4911;SDS011;2471;47.056;8.350;2023-04-24T07:26:25;3.30;;;1.60;;
4911;SDS011;2471;47.056;8.350;2023-04-24T07:28:51;2.70;;;1.17;;
4911;SDS011;2471;47.056;8.350;2023-04-24T07:31:17;1.20;;;1.10;;
4911;SDS011;2471;47.056;8.350;2023-04-24T07:33:43;2.47;;;1.10;;
4911;SDS011;2471;47.056;8.350;2023-04-24T07:36:11;1.27;;;1.17;;
4911;SDS011;2471;47.056;8.350;2023-04-24T07:38:44;2.80;;;1.63;;
4911;SDS011;2471;47.056;8.350;2023-04-24T07:41:10;1.53;;;1.40;;
4911;SDS011;2471;47.056;8.350;2023-04-24T07:43:36;3.63;;;1.10;;
4911;SDS011;2471;47.056;8.350;2023-04-24T07:46:05;1.40;;;1.30;;
4911;SDS011;2471;47.056;8.350;2023-04-24T07:48:31;1.73;;;1.50;;
4911;SDS011;2471;47.056;8.350;2023-04-24T07:50:57;1.50;;;1.40;;
4911;SDS011;2471;47.056;8.350;2023-04-24T07:53:23;1.10;;;1.10;;
4911;SDS011;2471;47.056;8.350;2023-04-24T07:55:49;6.53;;;1.53;;
4911;SDS011;2471;47.056;8.350;2023-04-24T07:58:15;5.23;;;1.60;;
4911;SDS011;2471;47.056;8.350;2023-04-24T08:00:41;2.03;;;1.70;;
4911;SDS011;2471;47.056;8.350;2023-04-24T08:03:10;1.30;;;1.20;;
4911;SDS011;2471;47.056;8.350;2023-04-24T08:05:37;1.43;;;1.20;;
4911;SDS011;2471;47.056;8.350;2023-04-24T08:08:03;1.97;;;1.40;;
4911;SDS011;2471;47.056;8.350;2023-04-24T08:10:29;2.10;;;1.40;;
4911;SDS011;2471;47.056;8.350;2023-04-24T08:12:55;1.77;;;1.50;;
4911;SDS011;2471;47.056;8.350;2023-04-24T08:15:21;1.70;;;1.60;;
4911;SDS011;2471;47.056;8.350;2023-04-24T08:17:47;3.43;;;1.40;;
4911;SDS011;2471;47.056;8.350;2023-04-24T08:20:13;1.63;;;1.50;;
4911;SDS011;2471;47.056;8.350;2023-04-24T08:22:42;2.07;;;1.97;;
4911;SDS011;2471;47.056;8.350;2023-04-24T08:25:09;3.10;;;1.43;;
4911;SDS011;2471;47.056;8.350;2023-04-24T08:27:35;1.30;;;1.20;;
4911;SDS011;2471;47.056;8.350;2023-04-24T08:30:05;1.57;;;1.33;;
4911;SDS011;2471;47.056;8.350;2023-04-24T08:32:31;1.73;;;1.63;;
4911;SDS011;2471;47.056;8.350;2023-04-24T08:34:57;2.47;;;1.60;;
4911;SDS011;2471;47.056;8.350;2023-04-24T08:37:23;6.63;;;2.10;;
4911;SDS011;2471;47.056;8.350;2023-04-24T08:39:50;4.33;;;1.70;;
4911;SDS011;2471;47.056;8.350;2023-04-24T08:42:16;3.13;;;1.80;;
4911;SDS011;2471;47.056;8.350;2023-04-24T08:44:42;4.23;;;2.07;;
4911;SDS011;2471;47.056;8.350;2023-04-24T08:47:09;3.13;;;1.50;;
4911;SDS011;2471;47.056;8.350;2023-04-24T08:49:36;1.97;;;1.63;;
4911;SDS011;2471;47.056;8.350;2023-04-24T08:52:02;2.40;;;1.40;;
4911;SDS011;2471;47.056;8.350;2023-04-24T08:54:29;1.87;;;1.17;;
4911;SDS011;2471;47.056;8.350;2023-04-24T08:56:58;1.60;;;1.30;;
4911;SDS011;2471;47.056;8.350;2023-04-24T08:59:26;3.53;;;3.23;;
4911;SDS011;2471;47.056;8.350;2023-04-24T09:01:52;2.90;;;2.00;;
4911;SDS011;2471;47.056;8.350;2023-04-24T09:04:18;2.30;;;1.87;;
4911;SDS011;2471;47.056;8.350;2023-04-24T09:06:47;2.67;;;1.60;;
4911;SDS011;2471;47.056;8.350;2023-04-24T09:09:13;4.90;;;1.47;;
4911;SDS011;2471;47.056;8.350;2023-04-24T09:11:41;6.33;;;1.87;;
4911;SDS011;2471;47.056;8.350;2023-04-24T09:14:07;5.90;;;2.00;;
4911;SDS011;2471;47.056;8.350;2023-04-24T09:16:35;3.30;;;1.70;;
4911;SDS011;2471;47.056;8.350;2023-04-24T09:19:01;3.97;;;1.17;;
4911;SDS011;2471;47.056;8.350;2023-04-24T09:21:31;6.20;;;1.83;;
4911;SDS011;2471;47.056;8.350;2023-04-24T09:24:02;2.30;;;1.90;;
4911;SDS011;2471;47.056;8.350;2023-04-24T09:26:34;1.77;;;1.67;;
4911;SDS011;2471;47.056;8.350;2023-04-24T09:29:00;3.10;;;1.83;;
4911;SDS011;2471;47.056;8.350;2023-04-24T09:31:29;4.77;;;2.50;;
4911;SDS011;2471;47.056;8.350;2023-04-24T09:33:56;3.60;;;1.57;;
4911;SDS011;2471;47.056;8.350;2023-04-24T09:36:29;1.77;;;1.67;;
4911;SDS011;2471;47.056;8.350;2023-04-24T09:38:58;2.50;;;1.40;;
4911;SDS011;2471;47.056;8.350;2023-04-24T09:41:24;8.03;;;1.87;;
4911;SDS011;2471;47.056;8.350;2023-04-24T09:43:51;4.10;;;1.80;;
4911;SDS011;2471;47.056;8.350;2023-04-24T09:46:19;5.57;;;2.30;;
4911;SDS011;2471;47.056;8.350;2023-04-24T09:48:46;2.13;;;1.97;;
4911;SDS011;2471;47.056;8.350;2023-04-24T09:51:12;2.17;;;1.53;;
4911;SDS011;2471;47.056;8.350;2023-04-24T09:53:40;11.47;;;3.00;;
4911;SDS011;2471;47.056;8.350;2023-04-24T09:56:10;4.50;;;1.80;;
4911;SDS011;2471;47.056;8.350;2023-04-24T09:58:40;2.57;;;2.17;;
4911;SDS011;2471;47.056;8.350;2023-04-24T10:01:06;1.83;;;1.70;;
4911;SDS011;2471;47.056;8.350;2023-04-24T10:03:32;3.03;;;1.73;;
4911;SDS011;2471;47.056;8.350;2023-04-24T10:05:59;3.10;;;1.80;;
4911;SDS011;2471;47.056;8.350;2023-04-24T10:08:25;3.53;;;1.60;;
4911;SDS011;2471;47.056;8.350;2023-04-24T10:10:52;3.10;;;2.07;;
4911;SDS011;2471;47.056;8.350;2023-04-24T10:13:18;3.37;;;1.90;;
4911;SDS011;2471;47.056;8.350;2023-04-24T10:15:44;5.00;;;2.10;;
4911;SDS011;2471;47.056;8.350;2023-04-24T10:18:10;2.20;;;1.97;;
4911;SDS011;2471;47.056;8.350;2023-04-24T10:20:38;2.97;;;2.00;;
4911;SDS011;2471;47.056;8.350;2023-04-24T10:23:04;2.33;;;2.13;;
4911;SDS011;2471;47.056;8.350;2023-04-24T10:25:31;5.50;;;1.97;;
4911;SDS011;2471;47.056;8.350;2023-04-24T10:27:58;2.30;;;1.83;;
4911;SDS011;2471;47.056;8.350;2023-04-24T10:30:25;3.93;;;1.80;;
4911;SDS011;2471;47.056;8.350;2023-04-24T10:32:51;4.10;;;2.20;;
4911;SDS011;2471;47.056;8.350;2023-04-24T10:35:17;3.20;;;1.87;;
4911;SDS011;2471;47.056;8.350;2023-04-24T10:37:51;2.33;;;1.70;;
4911;SDS011;2471;47.056;8.350;2023-04-24T10:40:18;3.23;;;2.47;;
4911;SDS011;2471;47.056;8.350;2023-04-24T10:42:48;2.10;;;1.90;;
4911;SDS011;2471;47.056;8.350;2023-04-24T10:45:17;2.63;;;2.13;;
4911;SDS011;2471;47.056;8.350;2023-04-24T10:47:52;3.40;;;2.00;;
4911;SDS011;2471;47.056;8.350;2023-04-24T10:50:18;2.80;;;2.03;;
4911;SDS011;2471;47.056;8.350;2023-04-24T10:52:48;3.00;;;1.80;;
4911;SDS011;2471;47.056;8.350;2023-04-24T10:58:04;2.20;;;2.00;;
4911;SDS011;2471;47.056;8.350;2023-04-24T11:00:30;1.77;;;1.63;;
4911;SDS011;2471;47.056;8.350;2023-04-24T11:02:56;3.73;;;1.80;;
4911;SDS011;2471;47.056;8.350;2023-04-24T11:05:23;2.47;;;1.70;;
4911;SDS011;2471;47.056;8.350;2023-04-24T11:08:12;5.23;;;1.77;;
4911;SDS011;2471;47.056;8.350;2023-04-24T11:10:47;4.50;;;1.97;;
4911;SDS011;2471;47.056;8.350;2023-04-24T11:13:23;12.53;;;2.67;;
4911;SDS011;2471;47.056;8.350;2023-04-24T11:18:38;7.73;;;2.17;;
4911;SDS011;2471;47.056;8.350;2023-04-24T11:21:12;1.97;;;1.80;;
4911;SDS011;2471;47.056;8.350;2023-04-24T11:23:39;2.73;;;2.40;;
4911;SDS011;2471;47.056;8.350;2023-04-24T11:26:09;1.50;;;1.40;;
4911;SDS011;2471;47.056;8.350;2023-04-24T11:28:35;6.37;;;1.80;;
4911;SDS011;2471;47.056;8.350;2023-04-24T11:31:33;2.43;;;2.20;;
4911;SDS011;2471;47.056;8.350;2023-04-24T11:33:47;4.13;;;2.20;;
4911;SDS011;2471;47.056;8.350;2023-04-24T11:36:13;5.30;;;2.47;;
4911;SDS011;2471;47.056;8.350;2023-04-24T11:38:39;2.70;;;2.17;;
4911;SDS011;2471;47.056;8.350;2023-04-24T11:41:05;2.93;;;2.20;;
4911;SDS011;2471;47.056;8.350;2023-04-24T11:43:32;8.23;;;2.40;;
4911;SDS011;2471;47.056;8.350;2023-04-24T11:45:59;1.73;;;1.63;;
4911;SDS011;2471;47.056;8.350;2023-04-24T11:48:25;2.07;;;1.87;;
4911;SDS011;2471;47.056;8.350;2023-04-24T11:50:51;4.83;;;2.33;;
4911;SDS011;2471;47.056;8.350;2023-04-24T11:53:19;3.73;;;1.73;;
4911;SDS011;2471;47.056;8.350;2023-04-24T11:55:46;2.73;;;1.80;;
4911;SDS011;2471;47.056;8.350;2023-04-24T11:58:12;4.67;;;2.07;;
4911;SDS011;2471;47.056;8.350;2023-04-24T12:00:38;4.70;;;2.17;;
4911;SDS011;2471;47.056;8.350;2023-04-24T12:03:05;5.50;;;2.07;;
4911;SDS011;2471;47.056;8.350;2023-04-24T12:05:31;2.07;;;1.90;;
4911;SDS011;2471;47.056;8.350;2023-04-24T12:07:58;2.47;;;2.10;;
4911;SDS011;2471;47.056;8.350;2023-04-24T12:10:24;9.50;;;4.93;;
4911;SDS011;2471;47.056;8.350;2023-04-24T12:12:51;3.10;;;1.80;;
4911;SDS011;2471;47.056;8.350;2023-04-24T12:15:17;6.70;;;2.83;;
4911;SDS011;2471;47.056;8.350;2023-04-24T12:17:43;2.90;;;2.20;;
4911;SDS011;2471;47.056;8.350;2023-04-24T12:20:10;3.40;;;1.63;;
4911;SDS011;2471;47.056;8.350;2023-04-24T12:22:58;4.53;;;1.53;;
4911;SDS011;2471;47.056;8.350;2023-04-24T12:25:23;3.67;;;2.00;;
4911;SDS011;2471;47.056;8.350;2023-04-24T12:28:09;6.80;;;1.70;;
4911;SDS011;2471;47.056;8.350;2023-04-24T12:30:42;3.67;;;1.60;;
4911;SDS011;2471;47.056;8.350;2023-04-24T12:33:16;1.60;;;1.50;;
4911;SDS011;2471;47.056;8.350;2023-04-24T12:35:43;4.00;;;1.93;;
4911;SDS011;2471;47.056;8.350;2023-04-24T12:38:10;4.27;;;1.93;;
4911;SDS011;2471;47.056;8.350;2023-04-24T12:40:37;2.87;;;1.70;;
4911;SDS011;2471;47.056;8.350;2023-04-24T12:43:12;2.83;;;1.63;;
4911;SDS011;2471;47.056;8.350;2023-04-24T12:45:38;1.97;;;1.50;;
4911;SDS011;2471;47.056;8.350;2023-04-24T12:48:04;1.93;;;1.60;;
4911;SDS011;2471;47.056;8.350;2023-04-24T12:50:30;2.17;;;1.47;;
4911;SDS011;2471;47.056;8.350;2023-04-24T12:52:56;4.37;;;1.50;;
4911;SDS011;2471;47.056;8.350;2023-04-24T12:55:22;2.70;;;1.70;;
4911;SDS011;2471;47.056;8.350;2023-04-24T12:57:48;2.17;;;1.67;;
4911;SDS011;2471;47.056;8.350;2023-04-24T13:00:14;1.67;;;1.50;;
4911;SDS011;2471;47.056;8.350;2023-04-24T13:02:40;7.83;;;1.77;;
4911;SDS011;2471;47.056;8.350;2023-04-24T13:05:06;2.30;;;2.10;;
4911;SDS011;2471;47.056;8.350;2023-04-24T13:07:32;1.83;;;1.70;;
4911;SDS011;2471;47.056;8.350;2023-04-24T13:09:59;2.23;;;1.80;;
4911;SDS011;2471;47.056;8.350;2023-04-24T13:12:25;2.03;;;1.83;;
4911;SDS011;2471;47.056;8.350;2023-04-24T13:14:51;3.10;;;2.23;;
4911;SDS011;2471;47.056;8.350;2023-04-24T13:17:17;2.60;;;1.97;;
4911;SDS011;2471;47.056;8.350;2023-04-24T13:19:43;3.33;;;1.30;;
4911;SDS011;2471;47.056;8.350;2023-04-24T13:22:10;2.50;;;1.70;;
4911;SDS011;2471;47.056;8.350;2023-04-24T13:24:37;6.30;;;2.27;;
4911;SDS011;2471;47.056;8.350;2023-04-24T13:27:04;1.43;;;1.33;;
4911;SDS011;2471;47.056;8.350;2023-04-24T13:29:30;4.20;;;2.07;;
4911;SDS011;2471;47.056;8.350;2023-04-24T13:31:59;1.60;;;1.50;;
4911;SDS011;2471;47.056;8.350;2023-04-24T13:34:26;3.37;;;1.83;;
4911;SDS011;2471;47.056;8.350;2023-04-24T13:36:52;2.20;;;1.97;;
4911;SDS011;2471;47.056;8.350;2023-04-24T13:39:18;4.30;;;1.60;;
4911;SDS011;2471;47.056;8.350;2023-04-24T13:41:44;2.40;;;1.70;;
4911;SDS011;2471;47.056;8.350;2023-04-24T13:44:13;5.50;;;1.80;;
4911;SDS011;2471;47.056;8.350;2023-04-24T13:46:38;2.90;;;1.83;;
4911;SDS011;2471;47.056;8.350;2023-04-24T13:49:04;6.00;;;2.00;;
4911;SDS011;2471;47.056;8.350;2023-04-24T13:51:30;2.80;;;1.70;;
4911;SDS011;2471;47.056;8.350;2023-04-24T13:53:56;3.10;;;1.77;;
4911;SDS011;2471;47.056;8.350;2023-04-24T13:56:23;2.67;;;1.80;;
4911;SDS011;2471;47.056;8.350;2023-04-24T13:58:49;1.50;;;1.40;;
4911;SDS011;2471;47.056;8.350;2023-04-24T14:01:14;1.53;;;1.43;;
4911;SDS011;2471;47.056;8.350;2023-04-24T14:03:41;1.47;;;1.37;;
4911;SDS011;2471;47.056;8.350;2023-04-24T14:06:10;1.60;;;1.50;;
4911;SDS011;2471;47.056;8.350;2023-04-24T14:08:36;1.80;;;1.37;;
4911;SDS011;2471;47.056;8.350;2023-04-24T14:11:02;2.00;;;1.80;;
4911;SDS011;2471;47.056;8.350;2023-04-24T14:13:28;2.90;;;1.57;;
4911;SDS011;2471;47.056;8.350;2023-04-24T14:15:54;4.03;;;1.40;;
4911;SDS011;2471;47.056;8.350;2023-04-24T14:18:20;1.97;;;1.50;;
4911;SDS011;2471;47.056;8.350;2023-04-24T14:20:46;1.80;;;1.70;;
4911;SDS011;2471;47.056;8.350;2023-04-24T14:23:12;1.90;;;1.80;;
4911;SDS011;2471;47.056;8.350;2023-04-24T14:25:38;2.63;;;2.43;;
4911;SDS011;2471;47.056;8.350;2023-04-24T14:28:05;2.30;;;1.80;;
4911;SDS011;2471;47.056;8.350;2023-04-24T14:30:31;3.47;;;1.80;;
4911;SDS011;2471;47.056;8.350;2023-04-24T14:32:57;4.33;;;2.00;;
4911;SDS011;2471;47.056;8.350;2023-04-24T14:35:23;5.60;;;2.63;;
4911;SDS011;2471;47.056;8.350;2023-04-24T14:37:49;4.30;;;1.93;;
4911;SDS011;2471;47.056;8.350;2023-04-24T14:40:16;3.57;;;2.13;;
4911;SDS011;2471;47.056;8.350;2023-04-24T14:42:42;2.23;;;2.03;;
4911;SDS011;2471;47.056;8.350;2023-04-24T14:45:08;2.10;;;1.90;;
4911;SDS011;2471;47.056;8.350;2023-04-24T14:47:34;2.00;;;1.80;;
4911;SDS011;2471;47.056;8.350;2023-04-24T14:50:00;2.30;;;2.10;;
4911;SDS011;2471;47.056;8.350;2023-04-24T14:52:26;3.10;;;1.47;;
4911;SDS011;2471;47.056;8.350;2023-04-24T14:54:51;6.17;;;2.50;;
4911;SDS011;2471;47.056;8.350;2023-04-24T14:57:17;3.97;;;1.60;;
4911;SDS011;2471;47.056;8.350;2023-04-24T14:59:43;2.27;;;2.07;;
4911;SDS011;2471;47.056;8.350;2023-04-24T15:02:09;2.00;;;1.80;;
4911;SDS011;2471;47.056;8.350;2023-04-24T15:04:35;4.43;;;2.27;;
4911;SDS011;2471;47.056;8.350;2023-04-24T15:07:01;2.33;;;1.70;;
4911;SDS011;2471;47.056;8.350;2023-04-24T15:09:27;2.20;;;1.33;;
4911;SDS011;2471;47.056;8.350;2023-04-24T15:11:53;2.40;;;2.20;;
4911;SDS011;2471;47.056;8.350;2023-04-24T15:14:20;2.33;;;1.80;;
4911;SDS011;2471;47.056;8.350;2023-04-24T15:16:46;2.23;;;1.93;;
4911;SDS011;2471;47.056;8.350;2023-04-24T15:19:12;2.40;;;1.80;;